Rock Creek, Texas
Current Conditions -  °F | °C
As of 8:51 PM on Saturday 25 Oct 2014 (Local Time) from KACT Reporting Station
Clear Clear  
Wind Chill: 76°   Ceiling: Unl
Heat Index: 76°   Visibility: 10mi
Dew Point: 60°   Wind: 9mph
Humidity: 58%   Direction: 150°SSE
Pressure: 30.07"   Gusts: NA
Location:  31.618°N, 97.2031°W
Report Text: KACT 260151Z 15008KT 10SM CLR 24/16 A3007 RMK AO2 SLP177 T02440156
Loading
Personal Weather Stations






























Interactive Weather Map
Tropical Storm Tracking
New forecast layout! Learn more

10-Day Weather Forecast

Advertisements
Track Severe Weather on mobile